Time;durP1;ratioP1;P1;durP2;ratioP2;P2;SDS_P1;SDS_P2;PMS_P1;PMS_P2;Temp;Humidity;BMP_temperature;BMP_pressure;BME280_temperature;BME280_humidity;BME280_pressure;Samples;Min_cycle;Max_cycle;Signal;HPM_P1;HPM_P2
2020/12/30 00:00:25;;;;;;;3.40;0.90;;;;;;;8.69;59.72;93048.13;5072939;28;20486;-51
2020/12/30 00:02:51;;;;;;;6.63;0.80;;;;;;;8.87;59.01;93041.59;5072757;28;20535;-47
2020/12/30 00:05:17;;;;;;;16.40;1.52;;;;;;;8.90;58.98;93045.97;5072654;28;20028;-46
2020/12/30 00:07:43;;;;;;;2.85;1.30;;;;;;;8.97;58.92;93050.03;5072583;28;20025;-46
2020/12/30 00:10:13;;;;;;;2.95;1.83;;;;;;;8.93;59.38;93047.66;5072687;28;20035;-45
2020/12/30 00:12:39;;;;;;;5.05;2.45;;;;;;;9.00;59.82;93044.19;5072651;28;20024;-45
2020/12/30 00:15:15;;;;;;;4.63;2.90;;;;;;;8.85;60.08;93052.41;5079733;28;20091;-49
2020/12/30 00:17:41;;;;;;;5.25;1.63;;;;;;;8.76;59.61;93054.94;5083245;28;20460;-48
2020/12/30 00:20:13;;;;;;;2.53;1.60;;;;;;;8.87;59.63;93052.59;5070911;28;20020;-46
2020/12/30 00:22:38;;;;;;;4.93;1.52;;;;;;;8.91;58.77;93047.47;5071973;28;20031;-47
2020/12/30 00:25:05;;;;;;;2.78;1.48;;;;;;;8.96;59.21;93049.31;5071617;28;20033;-47
2020/12/30 00:27:30;;;;;;;3.45;1.35;;;;;;;8.90;58.88;93045.25;5071595;28;20111;-46
2020/12/30 00:29:56;;;;;;;2.03;0.90;;;;;;;9.13;57.97;93046.78;5077426;28;20132;-47
2020/12/30 00:32:21;;;;;;;3.95;0.77;;;;;;;9.27;57.39;93060.38;5067685;28;20112;-46
2020/12/30 00:34:48;;;;;;;1.30;0.85;;;;;;;9.23;57.15;93043.44;5059420;28;20505;-48
2020/12/30 00:37:13;;;;;;;0.93;0.80;;;;;;;9.27;56.91;93050.06;5059521;28;20025;-47
2020/12/30 00:39:39;;;;;;;4.63;1.00;;;;;;;9.35;57.26;93053.59;5070950;28;20021;-48
2020/12/30 00:42:04;;;;;;;2.60;0.70;;;;;;;9.28;56.98;93046.03;5071022;28;20075;-45
2020/12/30 00:44:30;;;;;;;1.80;1.17;;;;;;;9.30;57.12;93053.75;5078519;28;20024;-44
2020/12/30 00:46:56;;;;;;;11.35;1.30;;;;;;;9.45;56.40;93054.50;5091186;28;20028;-46
2020/12/30 00:49:25;;;;;;;2.63;0.90;;;;;;;9.41;56.55;93059.66;5091348;28;20032;-45
2020/12/30 00:51:55;;;;;;;1.90;1.00;;;;;;;9.31;56.64;93064.25;5091110;28;20028;-46
2020/12/30 00:54:21;;;;;;;2.25;0.68;;;;;;;9.44;56.20;93079.84;5091244;28;20032;-45
2020/12/30 00:56:50;;;;;;;1.55;0.90;;;;;;;9.34;56.56;93054.13;5090958;28;20020;-47
2020/12/30 00:59:16;;;;;;;8.15;0.90;;;;;;;9.43;56.25;93051.56;5090679;28;20069;-46
2020/12/30 01:01:42;;;;;;;3.05;1.38;;;;;;;9.36;56.69;93057.06;5091512;28;20528;-46
2020/12/30 01:04:07;;;;;;;7.65;1.40;;;;;;;9.24;56.94;93051.19;5091453;28;20024;-46
2020/12/30 01:06:33;;;;;;;2.10;0.75;;;;;;;9.23;57.15;93048.97;5091475;28;20030;-44
2020/12/30 01:08:59;;;;;;;1.73;1.10;;;;;;;9.34;56.44;93054.13;5090249;28;20028;-45
2020/12/30 01:11:28;;;;;;;2.47;0.70;;;;;;;9.30;56.74;93053.75;5091129;28;20049;-45
2020/12/30 01:13:55;;;;;;;1.75;1.10;;;;;;;9.21;56.69;93030.25;5091595;28;20024;-45
2020/12/30 01:16:20;;;;;;;2.70;1.08;;;;;;;9.31;56.50;93042.19;5083092;28;20513;-44
2020/12/30 01:18:46;;;;;;;3.50;1.73;;;;;;;9.15;57.36;93038.69;5070736;28;20112;-46
2020/12/30 01:21:11;;;;;;;3.78;2.08;;;;;;;9.10;57.08;93038.84;5079894;28;20103;-44
2020/12/30 01:23:37;;;;;;;3.10;1.25;;;;;;;8.97;57.44;93028.75;5090683;28;20110;-45
2020/12/30 01:26:02;;;;;;;2.95;0.82;;;;;;;8.86;58.03;93020.84;5091195;28;20126;-44
2020/12/30 01:28:27;;;;;;;3.10;0.82;;;;;;;8.95;57.94;93025.81;5091358;28;20028;-44
2020/12/30 01:30:53;;;;;;;5.38;1.83;;;;;;;9.08;57.43;93028.41;5091641;28;20023;-44
2020/12/30 01:33:18;;;;;;;2.95;0.85;;;;;;;8.98;57.55;93023.97;5091277;28;20488;-43
2020/12/30 01:35:44;;;;;;;1.95;1.08;;;;;;;8.91;57.95;93022.69;5090888;28;20102;-44
2020/12/30 01:38:10;;;;;;;9.15;2.38;;;;;;;8.91;58.90;93022.69;5091112;28;20069;-43
2020/12/30 01:40:35;;;;;;;6.13;2.75;;;;;;;8.84;59.01;93023.41;5091101;28;20093;-45
2020/12/30 01:45:30;;;;;;;21.10;7.82;;;;;;;8.63;59.67;93025.56;5077396;28;20534;-58
2020/12/30 01:47:56;;;;;;;9.75;4.32;;;;;;;8.53;59.82;93024.63;5070836;28;20028;-58
2020/12/30 01:50:21;;;;;;;9.27;3.65;;;;;;;8.55;59.70;93007.56;5074110;28;20031;-47
2020/12/30 01:52:47;;;;;;;5.15;2.45;;;;;;;8.54;60.06;93008.81;5061823;28;20032;-48
2020/12/30 01:55:16;;;;;;;60.15;23.95;;;;;;;8.54;59.93;93011.56;5049454;28;20477;-49
2020/12/30 01:57:42;;;;;;;26.25;10.75;;;;;;;8.56;59.95;93014.50;5030705;28;20567;-51
2020/12/30 02:00:08;;;;;;;19.48;6.35;;;;;;;8.53;60.04;93018.38;5049860;28;20029;-49
2020/12/30 02:02:35;;;;;;;20.10;8.90;;;;;;;8.52;60.24;93011.38;5049568;28;20489;-48
2020/12/30 02:05:00;;;;;;;29.67;11.52;;;;;;;8.51;60.50;93015.44;5049438;28;20029;-51
2020/12/30 02:07:26;;;;;;;19.90;9.10;;;;;;;8.55;60.20;93015.81;5049158;28;20028;-49
2020/12/30 02:09:54;;;;;;;65.85;26.13;;;;;;;8.45;60.59;93023.09;5049462;28;20036;-49
2020/12/30 02:12:20;;;;;;;39.50;15.73;;;;;;;8.40;61.37;93016.50;5031607;28;20065;-51
2020/12/30 02:14:45;;;;;;;18.70;9.15;;;;;;;8.32;60.84;93015.72;5049489;28;20310;-50
2020/12/30 02:17:15;;;;;;;29.27;11.82;;;;;;;8.31;60.92;93015.00;5048433;28;20025;-54
2020/12/30 02:19:41;;;;;;;17.63;8.18;;;;;;;8.39;60.31;93020.53;5049346;28;20112;-50
2020/12/30 02:22:09;;;;;;;19.15;8.93;;;;;;;8.44;60.99;93033.38;5049231;28;20580;-54
2020/12/30 02:24:35;;;;;;;20.15;9.40;;;;;;;8.24;61.10;93023.94;5031666;28;20035;-53
2020/12/30 02:27:03;;;;;;;13.68;5.63;;;;;;;8.22;61.33;93023.75;5049140;28;20087;-54
2020/12/30 02:29:29;;;;;;;13.80;7.07;;;;;;;8.25;61.53;93016.41;5049282;28;20040;-52
2020/12/30 02:31:55;;;;;;;9.20;3.92;;;;;;;8.16;61.67;93014.91;5049324;28;20024;-50
2020/12/30 02:34:21;;;;;;;4.90;1.60;;;;;;;8.11;60.66;93017.81;5049225;28;20039;-54
2020/12/30 02:36:47;;;;;;;11.20;6.70;;;;;;;8.31;60.36;93019.78;5061930;28;20040;-49
2020/12/30 02:39:13;;;;;;;11.85;7.05;;;;;;;8.26;60.83;93021.41;5069053;28;20565;-49
2020/12/30 02:41:38;;;;;;;3.65;2.30;;;;;;;8.29;60.87;93014.09;5069080;28;20028;-55
2020/12/30 02:44:05;;;;;;;2.75;1.95;;;;;;;8.40;59.81;93013.75;5068923;28;20128;-48
2020/12/30 02:46:30;;;;;;;5.35;2.75;;;;;;;8.26;60.50;92998.66;5051275;28;20394;-50
2020/12/30 02:48:55;;;;;;;2.60;1.17;;;;;;;8.58;58.67;93006.44;5068860;28;20039;-49
2020/12/30 02:51:21;;;;;;;6.38;2.78;;;;;;;8.67;58.36;93014.91;5068747;28;20027;-47
2020/12/30 02:53:46;;;;;;;3.80;2.25;;;;;;;8.80;57.61;93006.50;5060377;28;20551;-47
2020/12/30 02:56:12;;;;;;;7.00;3.20;;;;;;;8.83;57.21;93002.69;5049246;28;20477;-48
2020/12/30 02:58:37;;;;;;;5.43;1.58;;;;;;;8.87;57.88;92992.03;5048005;28;20036;-46
2020/12/30 03:01:08;;;;;;;3.30;1.55;;;;;;;8.92;56.99;92993.84;5048695;28;20040;-46
2020/12/30 03:03:33;;;;;;;2.85;1.00;;;;;;;8.95;56.56;92984.50;5048976;28;20533;-47
2020/12/30 03:05:59;;;;;;;5.90;1.10;;;;;;;9.05;56.11;92996.44;5057561;28;20024;-46
2020/12/30 03:08:24;;;;;;;3.30;1.35;;;;;;;9.01;56.60;92993.31;5062828;28;20113;-50
2020/12/30 03:10:50;;;;;;;5.93;1.75;;;;;;;8.95;56.51;92997.53;5063150;28;20036;-47
2020/12/30 03:13:15;;;;;;;1.17;0.77;;;;;;;9.02;56.11;92985.81;5061318;28;20608;-45
2020/12/30 03:15:40;;;;;;;3.00;0.70;;;;;;;9.08;55.68;92987.09;5062860;28;20481;-51
2020/12/30 03:18:06;;;;;;;3.42;0.80;;;;;;;9.14;55.33;92978.63;5061832;28;20548;-46
2020/12/30 03:20:31;;;;;;;1.58;0.88;;;;;;;9.03;55.73;92982.50;5063523;28;20028;-47
2020/12/30 03:22:57;;;;;;;5.28;2.17;;;;;;;9.05;55.85;92982.66;5064189;28;20028;-48
2020/12/30 03:25:22;;;;;;;2.65;0.80;;;;;;;9.04;55.64;92983.97;5060412;28;20116;-45
2020/12/30 03:27:47;;;;;;;5.63;1.63;;;;;;;8.96;55.88;92979.75;5052370;28;20105;-53
2020/12/30 03:30:13;;;;;;;2.78;0.70;;;;;;;8.91;55.88;92966.88;5052288;28;20033;-56
2020/12/30 03:32:38;;;;;;;4.05;0.70;;;;;;;9.16;54.91;92974.03;5052153;28;20036;-52
2020/12/30 03:35:04;;;;;;;2.58;0.80;;;;;;;9.12;55.14;92981.19;5052109;28;20032;-52
2020/12/30 03:37:29;;;;;;;1.00;0.70;;;;;;;9.13;55.12;92975.16;5052211;28;20651;-49
2020/12/30 03:39:55;;;;;;;2.05;0.93;;;;;;;9.06;55.38;92970.38;5052193;28;20021;-49
2020/12/30 03:42:20;;;;;;;1.38;0.80;;;;;;;9.10;55.45;92961.75;5051964;28;20147;-51
2020/12/30 03:44:45;;;;;;;1.23;0.88;;;;;;;9.08;55.45;92970.56;5054653;28;20048;-49
2020/12/30 03:47:11;;;;;;;3.33;0.93;;;;;;;9.14;55.10;92959.34;5071882;28;20385;-58
2020/12/30 03:49:36;;;;;;;4.35;0.77;;;;;;;9.18;54.68;92960.47;5055178;28;20040;-46
2020/12/30 03:52:02;;;;;;;3.05;1.20;;;;;;;9.14;55.00;92938.06;5071668;28;20095;-50
2020/12/30 03:54:29;;;;;;;2.30;0.68;;;;;;;9.18;54.48;92935.66;5054481;28;20530;-48
2020/12/30 03:56:54;;;;;;;6.88;2.58;;;;;;;9.10;54.86;92939.72;5072908;28;20020;-46
2020/12/30 03:59:19;;;;;;;0.98;0.80;;;;;;;9.22;54.22;92942.84;5073330;28;20657;-48
2020/12/30 04:01:45;;;;;;;2.67;0.98;;;;;;;9.18;54.29;92930.16;5073206;28;20062;-45
2020/12/30 04:04:13;;;;;;;1.08;0.60;;;;;;;9.11;54.57;92921.91;5073168;28;20047;-47
2020/12/30 04:06:40;;;;;;;0.68;0.68;;;;;;;9.13;54.71;92925.59;5073715;28;20111;-46
2020/12/30 04:09:06;;;;;;;1.73;1.15;;;;;;;9.21;54.89;92941.34;5073736;28;20428;-45
2020/12/30 04:11:31;;;;;;;11.88;4.82;;;;;;;9.20;54.26;92943.41;5073520;28;20021;-48
2020/12/30 04:13:57;;;;;;;0.73;0.70;;;;;;;9.21;54.32;92927.59;5073415;28;20103;-47
2020/12/30 04:16:23;;;;;;;2.60;0.65;;;;;;;9.27;54.22;92939.88;5073043;28;20447;-46
2020/12/30 04:18:49;;;;;;;4.53;1.67;;;;;;;9.32;54.63;92952.00;5073252;28;20036;-49
2020/12/30 04:21:21;;;;;;;2.88;1.02;;;;;;;9.40;53.99;92953.47;5073382;28;20455;-49
2020/12/30 04:23:51;;;;;;;3.60;0.85;;;;;;;9.46;53.56;92951.28;5073104;28;20030;-46
2020/12/30 04:26:17;;;;;;;3.20;1.20;;;;;;;9.39;53.89;92937.50;5073213;28;20035;-47
2020/12/30 04:28:42;;;;;;;1.38;0.82;;;;;;;9.34;54.30;92939.16;5073139;28;20028;-47
2020/12/30 04:31:11;;;;;;;2.67;0.95;;;;;;;9.35;54.00;92951.66;5073208;28;20036;-44
2020/12/30 04:33:37;;;;;;;;;;;;;;;9.44;53.76;92944.84;5073668;28;20032;-47
2020/12/30 04:36:06;;;;;;;2.30;0.68;;;;;;;9.42;53.84;92948.13;5072852;28;19973;-47
2020/12/30 04:38:32;;;;;;;2.90;0.68;;;;;;;9.45;54.19;92951.81;5061210;28;20029;-44
2020/12/30 04:40:59;;;;;;;2.40;0.63;;;;;;;9.45;53.59;92941.53;5053077;28;20053;-46
2020/12/30 04:43:27;;;;;;;3.25;0.85;;;;;;;9.54;53.78;92962.28;5051600;28;20097;-47
2020/12/30 04:45:52;;;;;;;2.15;0.60;;;;;;;9.47;53.72;92941.69;5052929;28;20029;-48
2020/12/30 04:48:19;;;;;;;4.47;0.70;;;;;;;9.42;54.12;92942.63;5051611;28;20163;-48
2020/12/30 04:50:44;;;;;;;0.95;0.90;;;;;;;9.46;53.76;92942.25;5051590;28;20489;-49
2020/12/30 04:53:10;;;;;;;2.13;0.75;;;;;;;9.52;53.45;92949.06;5052608;28;20047;-50
2020/12/30 04:55:36;;;;;;;1.17;0.60;;;;;;;9.52;53.62;92959.34;5052667;28;20025;-48
2020/12/30 04:58:05;;;;;;;3.28;0.82;;;;;;;9.49;53.79;92952.16;5052742;28;20028;-48
2020/12/30 05:00:31;;;;;;;2.28;1.42;;;;;;;9.40;53.75;92956.22;5052653;28;20075;-46
2020/12/30 05:02:57;;;;;;;2.22;0.80;;;;;;;9.50;53.58;92965.41;5051347;28;20382;-45
2020/12/30 05:05:22;;;;;;;2.78;1.25;;;;;;;9.53;53.71;92960.81;5051223;28;20032;-48
2020/12/30 05:07:48;;;;;;;2.00;0.80;;;;;;;9.47;53.81;92955.47;5052401;28;20497;-50
2020/12/30 05:10:17;;;;;;;3.30;1.00;;;;;;;9.44;53.97;92964.13;5052411;28;20098;-49
2020/12/30 05:12:43;;;;;;;2.85;1.40;;;;;;;9.29;54.66;92986.19;5052420;28;20413;-47
2020/12/30 05:15:08;;;;;;;3.65;0.70;;;;;;;9.34;54.31;92985.25;5052290;28;20044;-47
2020/12/30 05:17:34;;;;;;;1.63;0.80;;;;;;;9.34;54.71;92982.50;5050832;28;20028;-47
2020/12/30 05:19:59;;;;;;;0.90;0.73;;;;;;;9.34;54.13;92974.22;5052159;28;20044;-48
2020/12/30 05:22:25;;;;;;;10.45;4.15;;;;;;;9.31;54.72;92987.09;5052204;28;20029;-51
2020/12/30 05:24:50;;;;;;;11.77;3.38;;;;;;;9.34;55.17;92988.00;5052071;28;20033;-53
2020/12/30 05:27:17;;;;;;;3.13;1.83;;;;;;;9.26;54.93;92981.75;5051050;28;20085;-54
2020/12/30 05:29:52;;;;;;;2.30;0.70;;;;;;;9.26;54.90;92976.25;5070393;28;20035;-56
2020/12/30 05:32:18;;;;;;;5.40;2.13;;;;;;;9.17;55.20;92972.03;5071730;28;20029;-55
2020/12/30 05:34:44;;;;;;;1.88;0.70;;;;;;;9.35;54.78;92983.97;5071814;28;20032;-52
2020/12/30 05:37:12;;;;;;;3.05;1.92;;;;;;;9.32;54.88;92972.03;5071802;28;20027;-54
2020/12/30 05:39:37;;;;;;;3.58;1.92;;;;;;;9.37;54.78;92978.63;5071594;28;20033;-55
2020/12/30 05:42:19;;;;;;;6.95;2.58;;;;;;;9.11;55.78;92983.25;5071805;28;20513;-60
2020/12/30 05:44:46;;;;;;;3.05;0.60;;;;;;;9.26;55.03;92981.75;5071378;28;20063;-59
2020/12/30 05:47:12;;;;;;;8.30;3.17;;;;;;;9.25;54.95;92977.56;5071664;28;20036;-59
2020/12/30 05:49:37;;;;;;;4.55;1.38;;;;;;;9.30;54.73;92977.34;5071631;28;20024;-59
2020/12/30 05:52:11;;;;;;;5.10;2.88;;;;;;;9.26;55.19;92981.75;5071649;28;20058;-59
2020/12/30 05:54:37;;;;;;;2.08;1.30;;;;;;;9.11;55.94;92988.75;5071673;28;20060;-59
2020/12/30 05:57:21;;;;;;;2.15;0.77;;;;;;;9.03;55.94;92988.00;5071461;28;20024;-59
2020/12/30 05:59:47;;;;;;;4.47;0.70;;;;;;;9.15;55.31;92988.38;5071657;28;20473;-59
2020/12/30 06:02:13;;;;;;;1.23;0.80;;;;;;;9.12;55.21;92994.97;5071503;28;20078;-59
2020/12/30 06:04:38;;;;;;;4.20;1.50;;;;;;;9.07;55.45;92980.09;5071528;28;20515;-60
2020/12/30 06:07:04;;;;;;;2.58;1.00;;;;;;;9.18;55.29;92990.03;5071458;28;20107;-52
2020/12/30 06:09:37;;;;;;;3.75;1.40;;;;;;;9.16;55.37;92990.56;5071286;28;20473;-49
2020/12/30 06:12:05;;;;;;;1.25;0.80;;;;;;;9.22;55.39;92984.16;5071456;28;20469;-52
2020/12/30 06:14:31;;;;;;;2.72;0.77;;;;;;;8.96;55.81;92965.97;5070415;28;20029;-51
2020/12/30 06:17:00;;;;;;;4.50;1.35;;;;;;;9.15;55.66;92991.88;5070735;28;20074;-49
2020/12/30 06:19:25;;;;;;;;;;;;;;;9.11;55.47;92997.03;5051762;28;20079;-54
2020/12/30 06:21:51;;;;;;;3.00;0.77;;;;;;;9.09;55.84;92998.84;5033359;28;19909;-47
2020/12/30 06:24:16;;;;;;;2.55;0.90;;;;;;;9.18;55.37;92997.56;5033631;28;20060;-51
2020/12/30 06:26:42;;;;;;;0.93;0.88;;;;;;;9.13;55.64;92996.47;5051233;28;20104;-52
2020/12/30 06:29:15;;;;;;;0.98;0.50;;;;;;;9.16;55.66;92995.34;5051103;28;20036;-48
2020/12/30 06:31:44;;;;;;;3.10;0.98;;;;;;;9.14;55.81;92997.91;5051191;28;20029;-51
2020/12/30 06:34:10;;;;;;;2.65;0.65;;;;;;;9.17;55.66;92996.81;5051202;28;20406;-50
2020/12/30 06:36:35;;;;;;;2.67;0.70;;;;;;;9.10;55.96;93003.78;5051195;28;20025;-49
2020/12/30 06:39:17;;;;;;;3.55;0.90;;;;;;;9.14;55.62;93006.19;5063187;28;20065;-51
2020/12/30 06:42:03;;;;;;;1.75;0.55;;;;;;;9.15;55.39;92994.63;5075229;28;20028;-53
2020/12/30 06:44:42;;;;;;;8.40;2.92;;;;;;;9.16;55.68;92996.09;5074906;28;20057;-55
2020/12/30 06:47:09;;;;;;;2.80;0.90;;;;;;;9.29;55.48;93013.72;5075211;28;20059;-52
2020/12/30 06:49:34;;;;;;;7.70;2.22;;;;;;;9.34;55.39;93008.03;5075047;28;20057;-54
2020/12/30 06:52:00;;;;;;;2.97;0.80;;;;;;;9.33;55.01;93001.06;5075064;28;20024;-51
2020/12/30 06:54:45;;;;;;;1.92;1.60;;;;;;;9.37;55.41;93000.69;5075172;28;20024;-55
2020/12/30 06:57:41;;;;;;;2.72;1.20;;;;;;;9.40;54.85;93003.06;5074828;28;20024;-55
2020/12/30 07:00:21;;;;;;;3.08;1.65;;;;;;;9.49;54.59;93012.78;5074919;28;20067;-50
2020/12/30 07:03:12;;;;;;;2.28;0.80;;;;;;;9.50;54.67;92998.47;5074889;28;20412;-51
2020/12/30 07:05:37;;;;;;;1.83;1.02;;;;;;;9.44;54.90;92988.94;5074730;28;20493;-51
2020/12/30 07:08:03;;;;;;;1.60;0.70;;;;;;;9.32;55.09;92972.03;5074487;28;20037;-48
2020/12/30 07:10:28;;;;;;;1.50;0.60;;;;;;;9.50;54.81;93008.75;5074728;28;20025;-54
2020/12/30 07:12:53;;;;;;;2.20;0.98;;;;;;;9.47;54.77;93009.84;5074569;28;20039;-51
2020/12/30 07:15:28;;;;;;;2.15;1.02;;;;;;;9.50;54.72;93009.50;5074462;28;20030;-55
2020/12/30 07:17:54;;;;;;;3.88;1.73;;;;;;;9.58;54.27;93017.75;5074554;28;20025;-52
2020/12/30 07:20:23;;;;;;;3.85;1.73;;;;;;;9.53;54.73;93015.94;5074474;28;20432;-51
2020/12/30 07:22:49;;;;;;;7.55;1.35;;;;;;;9.56;54.69;93021.06;5074381;28;20029;-48
2020/12/30 07:25:15;;;;;;;4.07;2.83;;;;;;;9.54;55.07;93026.41;5074329;28;20085;-50
2020/12/30 07:27:41;;;;;;;0.90;0.90;;;;;;;9.60;54.58;93015.91;5074218;28;20040;-47
2020/12/30 07:30:07;;;;;;;2.50;0.90;;;;;;;9.60;54.73;93004.16;5074323;28;20087;-49
2020/12/30 07:32:33;;;;;;;6.57;2.72;;;;;;;9.57;55.00;93022.50;5073962;28;20059;-49
2020/12/30 07:35:00;;;;;;;5.07;2.53;;;;;;;9.54;54.82;93026.41;5056859;28;20483;-55
2020/12/30 07:37:25;;;;;;;4.50;1.67;;;;;;;9.64;54.42;93029.31;5074629;28;20518;-55
2020/12/30 07:39:50;;;;;;;4.22;1.10;;;;;;;9.68;54.30;93030.41;5072975;28;20024;-48
2020/12/30 07:42:16;;;;;;;2.60;1.30;;;;;;;9.72;54.32;93035.56;5072532;28;20462;-56
2020/12/30 07:44:43;;;;;;;3.35;1.55;;;;;;;9.72;54.64;93054.88;5073407;28;20574;-52
2020/12/30 07:47:08;;;;;;;3.75;1.23;;;;;;;9.76;54.43;93046.97;5073457;28;20048;-52
2020/12/30 07:49:34;;;;;;;1.92;0.80;;;;;;;9.96;53.50;93046.00;5072827;28;20056;-51
2020/12/30 07:52:01;;;;;;;2.22;0.90;;;;;;;9.98;53.90;93057.22;5073152;28;20107;-52
2020/12/30 07:54:27;;;;;;;3.30;0.93;;;;;;;9.89;54.51;93046.75;5073384;28;20028;-52
2020/12/30 07:57:09;;;;;;;2.95;1.52;;;;;;;10.06;53.36;93060.69;5073311;28;20016;-53
2020/12/30 07:59:35;;;;;;;3.22;1.08;;;;;;;9.98;54.80;93053.72;5069668;28;20025;-48
2020/12/30 08:02:07;;;;;;;4.72;1.92;;;;;;;10.20;53.65;93050.94;5046527;28;20028;-49
2020/12/30 08:04:34;;;;;;;2.38;1.02;;;;;;;10.12;53.69;93043.97;5063606;28;20421;-48
2020/12/30 08:07:06;;;;;;;2.00;1.05;;;;;;;10.16;53.87;93036.03;5061936;28;20542;-47
2020/12/30 08:09:33;;;;;;;1.60;0.80;;;;;;;10.25;53.51;93038.97;5062805;28;20029;-48
2020/12/30 08:12:04;;;;;;;1.13;1.00;;;;;;;10.20;54.02;93031.63;5064163;28;20032;-49
2020/12/30 08:14:30;;;;;;;5.78;1.30;;;;;;;10.35;53.53;93037.09;5064795;28;20158;-51
2020/12/30 08:16:59;;;;;;;3.13;1.33;;;;;;;10.49;53.04;93046.63;5053329;28;20025;-50
2020/12/30 08:19:27;;;;;;;2.15;1.38;;;;;;;10.47;53.05;93042.94;5064502;28;20102;-54
2020/12/30 08:22:13;;;;;;;1.50;0.93;;;;;;;10.60;52.98;93037.94;5089734;28;20070;-45
2020/12/30 08:24:44;;;;;;;1.88;1.00;;;;;;;10.78;52.59;93035.25;5070809;28;20020;-44
2020/12/30 08:27:12;;;;;;;1.15;0.70;;;;;;;10.75;52.44;93050.91;5072648;28;20028;-62
2020/12/30 08:29:39;;;;;;;8.23;4.00;;;;;;;10.62;52.75;93032.56;5073319;28;20024;-47
2020/12/30 08:32:17;;;;;;;3.63;2.03;;;;;;;10.71;52.64;93047.81;5072930;28;20032;-47
2020/12/30 08:34:51;;;;;;;1.38;0.80;;;;;;;10.77;52.65;93042.06;5073184;28;20036;-55
2020/12/30 08:37:21;;;;;;;2.72;1.33;;;;;;;10.64;52.94;93043.06;5055256;28;20098;-46
2020/12/30 08:40:11;;;;;;;1.23;0.95;;;;;;;10.88;52.49;93047.16;5072949;28;20029;-50
2020/12/30 08:42:55;;;;;;;4.72;1.30;;;;;;;10.89;52.36;93051.41;5061811;28;20040;-49
2020/12/30 08:45:26;;;;;;;1.42;0.65;;;;;;;11.06;52.34;93040.44;5072323;28;20051;-47
2020/12/30 08:47:53;;;;;;;3.10;1.08;;;;;;;11.07;51.53;93036.38;5071477;28;20090;-47
2020/12/30 08:50:21;;;;;;;1.35;0.95;;;;;;;11.11;51.47;93039.50;5071183;28;20025;-51
2020/12/30 08:52:46;;;;;;;4.10;1.05;;;;;;;11.21;52.08;93041.09;5070941;28;20039;-49
2020/12/30 08:55:12;;;;;;;2.15;0.95;;;;;;;11.99;49.62;93038.66;5071132;28;20020;-51
2020/12/30 08:57:47;;;;;;;2.17;0.70;;;;;;;12.34;48.63;93028.34;5070923;28;20023;-48
2020/12/30 09:00:17;;;;;;;2.47;0.85;;;;;;;12.58;47.44;93027.47;5070556;28;20033;-48
2020/12/30 09:02:43;;;;;;;3.55;1.45;;;;;;;12.60;47.86;93026.94;5069666;28;20056;-51
2020/12/30 09:05:09;;;;;;;0.80;0.50;;;;;;;12.17;48.19;93034.56;5069951;28;20030;-50
2020/12/30 09:07:35;;;;;;;5.90;1.00;;;;;;;12.26;48.62;93035.25;5071308;28;20036;-49
2020/12/30 09:10:05;;;;;;;3.78;0.77;;;;;;;12.14;48.43;93024.66;5071140;28;20079;-51
2020/12/30 09:12:43;;;;;;;4.28;1.55;;;;;;;12.35;48.27;93023.50;5071356;28;20462;-48
2020/12/30 09:15:08;;;;;;;1.38;0.90;;;;;;;12.19;48.40;93020.91;5070768;28;20024;-48
2020/12/30 09:17:34;;;;;;;1.73;1.00;;;;;;;12.12;48.61;93015.47;5066077;28;20032;-49
2020/12/30 09:20:30;;;;;;;1.88;1.13;;;;;;;11.92;48.72;93027.66;5070776;28;20024;-48
2020/12/30 09:23:02;;;;;;;4.18;1.00;;;;;;;11.77;49.68;93025.75;5069299;28;20457;-48
2020/12/30 09:25:29;;;;;;;1.58;1.08;;;;;;;11.82;49.82;93021.28;5071041;28;20550;-48
2020/12/30 09:27:55;;;;;;;2.28;1.10;;;;;;;12.55;48.32;93014.78;5070468;28;20062;-50
2020/12/30 09:30:23;;;;;;;1.85;1.10;;;;;;;13.85;45.27;93009.59;5070843;28;20032;-51
2020/12/30 09:32:49;;;;;;;4.38;0.88;;;;;;;14.02;43.86;93014.31;5070734;28;20032;-52
2020/12/30 09:35:17;;;;;;;1.67;1.00;;;;;;;14.12;43.64;93003.97;5070474;28;20078;-49
2020/12/30 09:37:56;;;;;;;4.57;1.17;;;;;;;13.54;45.04;93003.81;5070934;28;20017;-49
2020/12/30 09:40:21;;;;;;;;;;;;;;;13.15;46.12;93007.75;5070886;28;20024;-47
2020/12/30 09:42:47;;;;;;;1.67;0.98;;;;;;;12.87;46.83;92994.44;5070463;28;19986;-51
2020/12/30 09:45:14;;;;;;;4.18;1.92;;;;;;;12.66;48.44;92994.91;5069807;28;20494;-50
2020/12/30 09:47:41;;;;;;;2.42;0.95;;;;;;;12.43;48.50;92977.09;5069983;28;20040;-48
2020/12/30 09:50:11;;;;;;;5.97;1.65;;;;;;;12.51;48.66;92995.09;5070360;28;20456;-50
2020/12/30 09:52:39;;;;;;;3.60;1.10;;;;;;;12.34;48.86;93006.19;5070268;28;20039;-48
2020/12/30 09:55:06;;;;;;;5.32;2.40;;;;;;;12.34;49.03;92994.38;5065330;28;20033;-49
2020/12/30 09:57:31;;;;;;;4.32;1.70;;;;;;;12.29;49.21;92985.00;5068334;28;20028;-48
2020/12/30 09:59:57;;;;;;;5.00;1.35;;;;;;;12.14;49.71;92982.41;5078828;28;20032;-49
2020/12/30 10:02:23;;;;;;;2.55;1.35;;;;;;;12.15;50.07;92981.84;5090307;28;20036;-49
2020/12/30 10:04:48;;;;;;;1.80;0.77;;;;;;;12.13;50.42;92976.13;5060064;28;20095;-59
2020/12/30 10:07:14;;;;;;;2.75;1.23;;;;;;;12.34;50.46;92977.75;5050228;28;20028;-61
2020/12/30 10:09:39;;;;;;;3.08;1.00;;;;;;;12.48;49.22;92967.78;5067736;28;20032;-59
2020/12/30 10:12:05;;;;;;;2.35;1.23;;;;;;;12.69;48.98;92974.34;5062056;28;20027;-54
2020/12/30 10:14:30;;;;;;;5.57;1.08;;;;;;;13.64;46.53;92940.06;5051621;28;20017;-58
2020/12/30 10:16:56;;;;;;;1.40;1.00;;;;;;;15.09;43.59;92964.44;5072907;28;20027;-59
2020/12/30 10:19:21;;;;;;;1.08;0.85;;;;;;;15.38;41.24;92972.66;5065899;28;20492;-46
2020/12/30 10:21:46;;;;;;;2.53;0.90;;;;;;;15.08;42.38;92957.38;5048772;28;20512;-55
2020/12/30 10:24:12;;;;;;;2.58;0.70;;;;;;;15.14;42.28;92961.31;5059605;28;20510;-48
2020/12/30 10:26:37;;;;;;;3.00;0.70;;;;;;;15.60;42.00;92949.16;5055745;28;20017;-51
2020/12/30 10:29:03;;;;;;;5.10;1.20;;;;;;;16.79;39.74;92948.59;5062488;28;20500;-47
2020/12/30 10:31:28;;;;;;;2.15;0.80;;;;;;;16.97;37.68;92939.31;5051900;28;20490;-50
2020/12/30 10:33:54;;;;;;;3.05;1.00;;;;;;;16.32;39.79;92950.44;5075654;28;20032;-49
2020/12/30 10:36:20;;;;;;;4.10;0.98;;;;;;;15.92;40.33;92929.78;5049616;28;20021;-49
2020/12/30 10:38:45;;;;;;;3.80;1.15;;;;;;;16.50;38.65;92943.28;5055068;28;20071;-51
2020/12/30 10:41:17;;;;;;;2.40;0.70;;;;;;;16.44;38.26;92943.59;5048622;28;20028;-52
2020/12/30 10:43:43;;;;;;;3.70;0.93;;;;;;;17.21;38.36;92934.50;5049516;28;20048;-52
2020/12/30 10:46:16;;;;;;;3.08;1.42;;;;;;;17.47;36.93;92941.69;5049410;28;20021;-50
2020/12/30 10:48:46;;;;;;;3.28;0.73;;;;;;;17.91;36.25;92944.34;5049772;28;20506;-52
2020/12/30 10:51:16;;;;;;;2.03;1.10;;;;;;;17.20;36.95;92928.19;5049784;28;20726;-50
2020/12/30 10:53:42;;;;;;;2.17;0.90;;;;;;;17.60;36.68;92921.56;5051381;28;20056;-49
2020/12/30 10:56:09;;;;;;;3.53;0.90;;;;;;;17.70;36.35;92922.16;5071268;28;20485;-46
2020/12/30 10:58:35;;;;;;;4.07;1.88;;;;;;;17.60;36.37;92920.81;5069607;28;20058;-50
2020/12/30 11:01:00;;;;;;;2.95;1.10;;;;;;;17.40;36.56;92921.06;5069783;28;20051;-45
2020/12/30 11:03:26;;;;;;;6.88;1.40;;;;;;;17.32;36.82;92914.25;5069647;28;20074;-47
2020/12/30 11:05:51;;;;;;;1.38;0.70;;;;;;;17.98;35.87;92911.91;5069420;28;20029;-48
2020/12/30 11:08:16;;;;;;;2.55;1.60;;;;;;;17.91;35.44;92913.63;5066225;28;20103;-47
2020/12/30 11:10:42;;;;;;;9.00;1.65;;;;;;;17.31;36.35;92919.09;5050008;28;20082;-57
2020/12/30 11:13:07;;;;;;;2.17;1.17;;;;;;;17.23;36.80;92909.50;5048071;28;20028;-58
2020/12/30 11:15:35;;;;;;;3.15;1.33;;;;;;;17.07;36.99;92919.66;5048651;28;20033;-47
2020/12/30 11:18:02;;;;;;;17.27;7.07;;;;;;;16.75;37.84;92892.56;5067503;28;20432;-55
2020/12/30 11:20:28;;;;;;;5.05;1.90;;;;;;;17.14;37.59;92902.72;5075666;28;20650;-55
2020/12/30 11:22:53;;;;;;;4.82;2.30;;;;;;;17.25;37.38;92901.25;5070431;28;20028;-55
2020/12/30 11:25:19;;;;;;;4.55;1.33;;;;;;;17.67;36.60;92884.28;5068888;28;20074;-47
2020/12/30 11:27:44;;;;;;;15.77;6.90;;;;;;;17.78;35.89;92888.41;5067941;28;20021;-49
2020/12/30 11:30:09;;;;;;;7.55;2.47;;;;;;;17.51;36.45;92897.28;5073231;28;20024;-52
2020/12/30 11:32:35;;;;;;;3.25;1.70;;;;;;;17.15;37.62;92878.34;5073103;28;20027;-53
2020/12/30 11:35:00;;;;;;;11.52;2.97;;;;;;;17.59;36.48;92875.44;5072764;28;20032;-46
2020/12/30 11:37:26;;;;;;;3.65;1.92;;;;;;;17.60;36.36;92890.84;5062313;28;20024;-50
2020/12/30 11:39:51;;;;;;;2.75;1.48;;;;;;;16.79;37.21;92884.47;5060634;28;20017;-45
2020/12/30 11:42:16;;;;;;;3.60;1.35;;;;;;;16.60;37.62;92865.88;5061934;28;20024;-48